sensor_id;sensor_type;location;lat;lon;timestamp;P1;durP1;ratioP1;P2;durP2;ratioP2
33826;SDS011;20128;45.582;5.298;2022-09-17T00:00:04;6.95;;;2.22;;
33826;SDS011;20128;45.582;5.298;2022-09-17T00:02:30;6.50;;;2.67;;
33826;SDS011;20128;45.582;5.298;2022-09-17T00:04:55;12.85;;;2.28;;
33826;SDS011;20128;45.582;5.298;2022-09-17T00:07:21;10.15;;;1.90;;
33826;SDS011;20128;45.582;5.298;2022-09-17T00:09:47;5.18;;;2.40;;
33826;SDS011;20128;45.582;5.298;2022-09-17T00:12:12;5.25;;;1.92;;
33826;SDS011;20128;45.582;5.298;2022-09-17T00:14:39;4.50;;;2.10;;
33826;SDS011;20128;45.582;5.298;2022-09-17T00:17:05;8.43;;;2.85;;
33826;SDS011;20128;45.582;5.298;2022-09-17T00:19:30;5.13;;;1.80;;
33826;SDS011;20128;45.582;5.298;2022-09-17T00:21:56;5.63;;;2.10;;
33826;SDS011;20128;45.582;5.298;2022-09-17T00:24:24;7.15;;;2.00;;
33826;SDS011;20128;45.582;5.298;2022-09-17T00:26:50;9.25;;;2.17;;
33826;SDS011;20128;45.582;5.298;2022-09-17T00:29:15;9.10;;;2.30;;
33826;SDS011;20128;45.582;5.298;2022-09-17T00:31:41;4.13;;;1.83;;
33826;SDS011;20128;45.582;5.298;2022-09-17T00:34:07;3.88;;;2.00;;
33826;SDS011;20128;45.582;5.298;2022-09-17T00:36:33;4.68;;;2.22;;
33826;SDS011;20128;45.582;5.298;2022-09-17T00:39:00;8.40;;;1.88;;
33826;SDS011;20128;45.582;5.298;2022-09-17T00:41:27;5.95;;;1.83;;
33826;SDS011;20128;45.582;5.298;2022-09-17T00:43:55;5.82;;;1.83;;
33826;SDS011;20128;45.582;5.298;2022-09-17T00:48:56;4.38;;;1.40;;
33826;SDS011;20128;45.582;5.298;2022-09-17T00:51:47;7.93;;;1.80;;
33826;SDS011;20128;45.582;5.298;2022-09-17T00:54:19;5.03;;;1.80;;
33826;SDS011;20128;45.582;5.298;2022-09-17T00:56:45;5.22;;;1.48;;
33826;SDS011;20128;45.582;5.298;2022-09-17T00:59:12;6.93;;;1.70;;
33826;SDS011;20128;45.582;5.298;2022-09-17T01:01:39;6.25;;;2.10;;
33826;SDS011;20128;45.582;5.298;2022-09-17T01:04:05;4.72;;;1.60;;
33826;SDS011;20128;45.582;5.298;2022-09-17T01:06:36;5.85;;;1.98;;
33826;SDS011;20128;45.582;5.298;2022-09-17T01:09:20;3.20;;;1.35;;
33826;SDS011;20128;45.582;5.298;2022-09-17T01:15:15;2.90;;;1.45;;
33826;SDS011;20128;45.582;5.298;2022-09-17T01:31:50;9.52;;;2.10;;
33826;SDS011;20128;45.582;5.298;2022-09-17T01:34:31;3.65;;;1.52;;
33826;SDS011;20128;45.582;5.298;2022-09-17T01:37:13;6.45;;;2.00;;
33826;SDS011;20128;45.582;5.298;2022-09-17T01:42:21;4.63;;;1.73;;
33826;SDS011;20128;45.582;5.298;2022-09-17T01:47:56;5.15;;;1.98;;
33826;SDS011;20128;45.582;5.298;2022-09-17T01:50:54;4.43;;;2.67;;
33826;SDS011;20128;45.582;5.298;2022-09-17T01:53:30;4.10;;;1.73;;
33826;SDS011;20128;45.582;5.298;2022-09-17T01:56:02;4.57;;;1.92;;
33826;SDS011;20128;45.582;5.298;2022-09-17T01:58:34;7.25;;;2.25;;
33826;SDS011;20128;45.582;5.298;2022-09-17T02:01:06;5.25;;;2.42;;
33826;SDS011;20128;45.582;5.298;2022-09-17T02:06:05;4.40;;;2.08;;
33826;SDS011;20128;45.582;5.298;2022-09-17T02:11:23;3.95;;;1.75;;
33826;SDS011;20128;45.582;5.298;2022-09-17T02:13:53;5.68;;;1.85;;
33826;SDS011;20128;45.582;5.298;2022-09-17T02:16:35;3.25;;;1.58;;
33826;SDS011;20128;45.582;5.298;2022-09-17T02:19:11;4.82;;;1.73;;
33826;SDS011;20128;45.582;5.298;2022-09-17T02:27:01;7.72;;;2.45;;
33826;SDS011;20128;45.582;5.298;2022-09-17T02:29:38;6.40;;;2.63;;
33826;SDS011;20128;45.582;5.298;2022-09-17T02:32:09;9.05;;;2.00;;
33826;SDS011;20128;45.582;5.298;2022-09-17T02:34:35;3.80;;;1.90;;
33826;SDS011;20128;45.582;5.298;2022-09-17T02:37:02;3.75;;;1.98;;
33826;SDS011;20128;45.582;5.298;2022-09-17T02:39:28;8.75;;;2.05;;
33826;SDS011;20128;45.582;5.298;2022-09-17T02:44:49;10.45;;;2.28;;
33826;SDS011;20128;45.582;5.298;2022-09-17T02:58:27;5.35;;;2.15;;
33826;SDS011;20128;45.582;5.298;2022-09-17T03:00:59;6.35;;;1.92;;
33826;SDS011;20128;45.582;5.298;2022-09-17T03:03:36;9.02;;;2.45;;
33826;SDS011;20128;45.582;5.298;2022-09-17T03:06:05;5.18;;;2.15;;
33826;SDS011;20128;45.582;5.298;2022-09-17T03:08:32;12.10;;;2.42;;
33826;SDS011;20128;45.582;5.298;2022-09-17T03:11:01;8.85;;;2.58;;
33826;SDS011;20128;45.582;5.298;2022-09-17T03:13:28;7.45;;;1.65;;
33826;SDS011;20128;45.582;5.298;2022-09-17T03:15:55;9.00;;;2.03;;
33826;SDS011;20128;45.582;5.298;2022-09-17T03:18:20;7.78;;;2.67;;
33826;SDS011;20128;45.582;5.298;2022-09-17T03:20:46;7.13;;;2.10;;
33826;SDS011;20128;45.582;5.298;2022-09-17T03:23:12;9.93;;;1.63;;
33826;SDS011;20128;45.582;5.298;2022-09-17T03:25:37;8.65;;;2.15;;
33826;SDS011;20128;45.582;5.298;2022-09-17T03:28:03;6.63;;;2.33;;
33826;SDS011;20128;45.582;5.298;2022-09-17T03:30:28;7.38;;;2.17;;
33826;SDS011;20128;45.582;5.298;2022-09-17T03:32:55;6.65;;;2.20;;
33826;SDS011;20128;45.582;5.298;2022-09-17T03:35:21;7.40;;;2.35;;
33826;SDS011;20128;45.582;5.298;2022-09-17T03:37:46;7.10;;;2.28;;
33826;SDS011;20128;45.582;5.298;2022-09-17T03:40:12;5.35;;;1.60;;
33826;SDS011;20128;45.582;5.298;2022-09-17T03:42:38;9.02;;;2.28;;
33826;SDS011;20128;45.582;5.298;2022-09-17T03:45:04;6.20;;;1.98;;
33826;SDS011;20128;45.582;5.298;2022-09-17T03:47:30;10.18;;;2.53;;
33826;SDS011;20128;45.582;5.298;2022-09-17T03:49:55;4.50;;;2.13;;
33826;SDS011;20128;45.582;5.298;2022-09-17T03:52:21;3.88;;;2.00;;
33826;SDS011;20128;45.582;5.298;2022-09-17T03:54:47;6.47;;;2.05;;
33826;SDS011;20128;45.582;5.298;2022-09-17T03:57:13;7.53;;;1.77;;
33826;SDS011;20128;45.582;5.298;2022-09-17T03:59:38;6.40;;;2.10;;
33826;SDS011;20128;45.582;5.298;2022-09-17T04:02:04;6.43;;;1.88;;
33826;SDS011;20128;45.582;5.298;2022-09-17T04:04:30;8.73;;;1.80;;
33826;SDS011;20128;45.582;5.298;2022-09-17T04:06:56;12.32;;;2.50;;
33826;SDS011;20128;45.582;5.298;2022-09-17T04:09:22;6.80;;;2.35;;
33826;SDS011;20128;45.582;5.298;2022-09-17T04:11:47;5.93;;;1.58;;
33826;SDS011;20128;45.582;5.298;2022-09-17T04:14:13;6.03;;;1.83;;
33826;SDS011;20128;45.582;5.298;2022-09-17T04:16:39;4.57;;;1.67;;
33826;SDS011;20128;45.582;5.298;2022-09-17T04:19:04;6.47;;;1.60;;
33826;SDS011;20128;45.582;5.298;2022-09-17T04:21:30;7.03;;;1.95;;
33826;SDS011;20128;45.582;5.298;2022-09-17T04:23:56;7.13;;;2.05;;
33826;SDS011;20128;45.582;5.298;2022-09-17T04:26:22;8.15;;;2.13;;
33826;SDS011;20128;45.582;5.298;2022-09-17T04:28:48;11.52;;;1.90;;
33826;SDS011;20128;45.582;5.298;2022-09-17T04:31:13;5.28;;;1.60;;
33826;SDS011;20128;45.582;5.298;2022-09-17T04:33:39;6.65;;;1.73;;
33826;SDS011;20128;45.582;5.298;2022-09-17T04:36:04;7.18;;;1.30;;
33826;SDS011;20128;45.582;5.298;2022-09-17T04:38:30;6.68;;;2.20;;
33826;SDS011;20128;45.582;5.298;2022-09-17T04:40:57;7.50;;;1.98;;
33826;SDS011;20128;45.582;5.298;2022-09-17T04:43:23;10.20;;;2.10;;
33826;SDS011;20128;45.582;5.298;2022-09-17T04:45:49;3.55;;;1.70;;
33826;SDS011;20128;45.582;5.298;2022-09-17T04:48:15;3.30;;;1.50;;
33826;SDS011;20128;45.582;5.298;2022-09-17T04:50:42;6.45;;;1.83;;
33826;SDS011;20128;45.582;5.298;2022-09-17T04:53:07;4.60;;;1.80;;
33826;SDS011;20128;45.582;5.298;2022-09-17T04:55:33;4.40;;;1.80;;
33826;SDS011;20128;45.582;5.298;2022-09-17T04:57:59;5.38;;;1.38;;
33826;SDS011;20128;45.582;5.298;2022-09-17T05:00:25;4.45;;;1.38;;
33826;SDS011;20128;45.582;5.298;2022-09-17T05:02:52;5.70;;;1.40;;
33826;SDS011;20128;45.582;5.298;2022-09-17T05:05:19;3.38;;;1.45;;
33826;SDS011;20128;45.582;5.298;2022-09-17T05:07:45;10.00;;;2.22;;
33826;SDS011;20128;45.582;5.298;2022-09-17T05:10:12;14.38;;;1.67;;
33826;SDS011;20128;45.582;5.298;2022-09-17T05:12:39;4.50;;;1.50;;
33826;SDS011;20128;45.582;5.298;2022-09-17T05:15:05;4.65;;;1.70;;
33826;SDS011;20128;45.582;5.298;2022-09-17T05:17:31;4.85;;;1.73;;
33826;SDS011;20128;45.582;5.298;2022-09-17T05:19:57;6.72;;;1.60;;
33826;SDS011;20128;45.582;5.298;2022-09-17T05:22:23;4.50;;;1.42;;
33826;SDS011;20128;45.582;5.298;2022-09-17T05:24:48;4.13;;;1.65;;
33826;SDS011;20128;45.582;5.298;2022-09-17T05:27:14;7.30;;;1.17;;
33826;SDS011;20128;45.582;5.298;2022-09-17T05:29:39;4.70;;;1.30;;
33826;SDS011;20128;45.582;5.298;2022-09-17T05:32:05;5.28;;;2.08;;
33826;SDS011;20128;45.582;5.298;2022-09-17T05:34:31;7.75;;;1.90;;
33826;SDS011;20128;45.582;5.298;2022-09-17T05:36:57;4.88;;;1.65;;
33826;SDS011;20128;45.582;5.298;2022-09-17T05:39:22;8.00;;;2.05;;
33826;SDS011;20128;45.582;5.298;2022-09-17T05:41:51;4.03;;;1.70;;
33826;SDS011;20128;45.582;5.298;2022-09-17T05:44:17;7.68;;;2.10;;
33826;SDS011;20128;45.582;5.298;2022-09-17T05:46:44;3.80;;;1.50;;
33826;SDS011;20128;45.582;5.298;2022-09-17T05:49:10;6.32;;;1.63;;
33826;SDS011;20128;45.582;5.298;2022-09-17T05:51:36;5.32;;;1.60;;
33826;SDS011;20128;45.582;5.298;2022-09-17T05:54:02;7.40;;;1.42;;
33826;SDS011;20128;45.582;5.298;2022-09-17T05:56:27;5.65;;;1.80;;
33826;SDS011;20128;45.582;5.298;2022-09-17T05:58:54;6.25;;;2.00;;
33826;SDS011;20128;45.582;5.298;2022-09-17T06:01:20;4.53;;;1.52;;
33826;SDS011;20128;45.582;5.298;2022-09-17T06:03:46;6.30;;;1.52;;
33826;SDS011;20128;45.582;5.298;2022-09-17T06:06:12;3.22;;;1.88;;
33826;SDS011;20128;45.582;5.298;2022-09-17T06:08:37;7.60;;;2.15;;
33826;SDS011;20128;45.582;5.298;2022-09-17T06:11:04;6.70;;;1.55;;
33826;SDS011;20128;45.582;5.298;2022-09-17T06:13:31;4.78;;;1.20;;
33826;SDS011;20128;45.582;5.298;2022-09-17T06:15:57;2.83;;;1.13;;
33826;SDS011;20128;45.582;5.298;2022-09-17T06:18:23;3.72;;;1.35;;
33826;SDS011;20128;45.582;5.298;2022-09-17T06:20:52;5.88;;;1.60;;
33826;SDS011;20128;45.582;5.298;2022-09-17T06:23:19;4.32;;;1.60;;
33826;SDS011;20128;45.582;5.298;2022-09-17T06:25:55;4.53;;;1.60;;
33826;SDS011;20128;45.582;5.298;2022-09-17T06:28:22;4.22;;;1.20;;
33826;SDS011;20128;45.582;5.298;2022-09-17T06:30:49;6.90;;;1.30;;
33826;SDS011;20128;45.582;5.298;2022-09-17T06:33:18;3.65;;;1.38;;
33826;SDS011;20128;45.582;5.298;2022-09-17T06:35:44;3.15;;;1.25;;
33826;SDS011;20128;45.582;5.298;2022-09-17T06:38:10;3.45;;;1.50;;
33826;SDS011;20128;45.582;5.298;2022-09-17T06:40:36;2.38;;;1.25;;
33826;SDS011;20128;45.582;5.298;2022-09-17T06:43:02;4.80;;;1.50;;
33826;SDS011;20128;45.582;5.298;2022-09-17T06:45:28;4.10;;;1.30;;
33826;SDS011;20128;45.582;5.298;2022-09-17T06:47:54;3.78;;;1.58;;
33826;SDS011;20128;45.582;5.298;2022-09-17T06:50:20;4.90;;;1.27;;
33826;SDS011;20128;45.582;5.298;2022-09-17T06:55:14;3.22;;;1.00;;
33826;SDS011;20128;45.582;5.298;2022-09-17T06:57:40;2.95;;;1.38;;
33826;SDS011;20128;45.582;5.298;2022-09-17T07:00:06;6.47;;;1.67;;
33826;SDS011;20128;45.582;5.298;2022-09-17T07:02:33;6.30;;;1.25;;
33826;SDS011;20128;45.582;5.298;2022-09-17T07:04:59;8.05;;;1.75;;
33826;SDS011;20128;45.582;5.298;2022-09-17T07:07:25;3.30;;;1.20;;
33826;SDS011;20128;45.582;5.298;2022-09-17T07:09:50;3.35;;;1.23;;
33826;SDS011;20128;45.582;5.298;2022-09-17T07:12:17;4.22;;;1.10;;
33826;SDS011;20128;45.582;5.298;2022-09-17T07:14:43;2.00;;;1.15;;
33826;SDS011;20128;45.582;5.298;2022-09-17T07:17:09;6.97;;;0.93;;
33826;SDS011;20128;45.582;5.298;2022-09-17T07:19:35;3.38;;;1.00;;
33826;SDS011;20128;45.582;5.298;2022-09-17T07:22:01;3.05;;;1.10;;
33826;SDS011;20128;45.582;5.298;2022-09-17T07:24:26;4.75;;;0.90;;
33826;SDS011;20128;45.582;5.298;2022-09-17T07:26:52;4.20;;;0.70;;
33826;SDS011;20128;45.582;5.298;2022-09-17T07:29:17;2.58;;;0.75;;
33826;SDS011;20128;45.582;5.298;2022-09-17T07:31:44;5.38;;;0.90;;
33826;SDS011;20128;45.582;5.298;2022-09-17T07:34:10;3.72;;;1.08;;
33826;SDS011;20128;45.582;5.298;2022-09-17T07:36:35;3.90;;;0.77;;
33826;SDS011;20128;45.582;5.298;2022-09-17T07:39:01;3.85;;;1.10;;
33826;SDS011;20128;45.582;5.298;2022-09-17T07:41:27;5.03;;;1.00;;
33826;SDS011;20128;45.582;5.298;2022-09-17T07:43:53;4.05;;;0.95;;
33826;SDS011;20128;45.582;5.298;2022-09-17T07:46:19;1.42;;;0.80;;
33826;SDS011;20128;45.582;5.298;2022-09-17T07:48:45;5.13;;;0.90;;
33826;SDS011;20128;45.582;5.298;2022-09-17T07:51:22;3.85;;;0.70;;
33826;SDS011;20128;45.582;5.298;2022-09-17T07:53:50;3.22;;;0.90;;
33826;SDS011;20128;45.582;5.298;2022-09-17T07:56:16;5.95;;;1.02;;
33826;SDS011;20128;45.582;5.298;2022-09-17T07:58:42;3.47;;;1.00;;
33826;SDS011;20128;45.582;5.298;2022-09-17T08:01:09;3.40;;;1.13;;
33826;SDS011;20128;45.582;5.298;2022-09-17T08:03:36;4.88;;;0.90;;
33826;SDS011;20128;45.582;5.298;2022-09-17T08:06:07;2.78;;;0.90;;
33826;SDS011;20128;45.582;5.298;2022-09-17T08:08:35;5.07;;;0.80;;
33826;SDS011;20128;45.582;5.298;2022-09-17T08:13:31;3.33;;;0.90;;
33826;SDS011;20128;45.582;5.298;2022-09-17T08:16:04;7.00;;;0.80;;
33826;SDS011;20128;45.582;5.298;2022-09-17T08:18:34;1.25;;;0.50;;
33826;SDS011;20128;45.582;5.298;2022-09-17T08:21:00;6.05;;;0.50;;
33826;SDS011;20128;45.582;5.298;2022-09-17T08:23:28;4.53;;;0.70;;
33826;SDS011;20128;45.582;5.298;2022-09-17T08:25:57;3.33;;;0.95;;
33826;SDS011;20128;45.582;5.298;2022-09-17T08:28:24;2.40;;;0.73;;
33826;SDS011;20128;45.582;5.298;2022-09-17T08:30:52;4.22;;;0.70;;
33826;SDS011;20128;45.582;5.298;2022-09-17T08:33:18;1.60;;;0.60;;
33826;SDS011;20128;45.582;5.298;2022-09-17T08:35:51;2.70;;;0.73;;
33826;SDS011;20128;45.582;5.298;2022-09-17T08:38:18;10.77;;;0.82;;
33826;SDS011;20128;45.582;5.298;2022-09-17T08:40:52;2.67;;;0.77;;
33826;SDS011;20128;45.582;5.298;2022-09-17T08:43:22;2.15;;;0.60;;
33826;SDS011;20128;45.582;5.298;2022-09-17T08:45:53;4.47;;;0.98;;
33826;SDS011;20128;45.582;5.298;2022-09-17T08:48:20;2.08;;;0.60;;
33826;SDS011;20128;45.582;5.298;2022-09-17T08:50:47;4.40;;;0.80;;
33826;SDS011;20128;45.582;5.298;2022-09-17T09:01:44;1.63;;;0.30;;
33826;SDS011;20128;45.582;5.298;2022-09-17T09:07:14;5.93;;;0.75;;
33826;SDS011;20128;45.582;5.298;2022-09-17T09:09:45;12.32;;;2.35;;
33826;SDS011;20128;45.582;5.298;2022-09-17T09:12:27;5.63;;;1.77;;
33826;SDS011;20128;45.582;5.298;2022-09-17T09:15:01;0.95;;;0.50;;
33826;SDS011;20128;45.582;5.298;2022-09-17T09:17:37;5.38;;;0.50;;
33826;SDS011;20128;45.582;5.298;2022-09-17T09:20:12;3.67;;;0.50;;
33826;SDS011;20128;45.582;5.298;2022-09-17T09:25:28;3.35;;;0.88;;
33826;SDS011;20128;45.582;5.298;2022-09-17T09:28:11;6.53;;;0.60;;
33826;SDS011;20128;45.582;5.298;2022-09-17T09:33:32;4.30;;;0.50;;
33826;SDS011;20128;45.582;5.298;2022-09-17T09:36:11;2.83;;;0.52;;
33826;SDS011;20128;45.582;5.298;2022-09-17T09:38:43;4.95;;;0.50;;
33826;SDS011;20128;45.582;5.298;2022-09-17T09:44:14;1.95;;;0.47;;
33826;SDS011;20128;45.582;5.298;2022-09-17T09:47:02;5.78;;;0.50;;
33826;SDS011;20128;45.582;5.298;2022-09-17T09:49:42;2.05;;;0.43;;
33826;SDS011;20128;45.582;5.298;2022-09-17T10:00:53;2.42;;;0.68;;
33826;SDS011;20128;45.582;5.298;2022-09-17T10:03:29;6.88;;;0.50;;
33826;SDS011;20128;45.582;5.298;2022-09-17T10:06:02;4.13;;;0.47;;
33826;SDS011;20128;45.582;5.298;2022-09-17T10:13:28;2.47;;;0.50;;
33826;SDS011;20128;45.582;5.298;2022-09-17T10:15:56;2.22;;;0.70;;
33826;SDS011;20128;45.582;5.298;2022-09-17T10:18:31;5.55;;;0.60;;
33826;SDS011;20128;45.582;5.298;2022-09-17T10:20:58;3.75;;;0.70;;
33826;SDS011;20128;45.582;5.298;2022-09-17T10:23:25;2.25;;;0.40;;
33826;SDS011;20128;45.582;5.298;2022-09-17T10:25:53;4.50;;;0.80;;
33826;SDS011;20128;45.582;5.298;2022-09-17T10:28:27;2.10;;;0.60;;
33826;SDS011;20128;45.582;5.298;2022-09-17T10:31:08;5.93;;;0.55;;
33826;SDS011;20128;45.582;5.298;2022-09-17T10:33:37;7.93;;;1.10;;
33826;SDS011;20128;45.582;5.298;2022-09-17T10:36:11;7.65;;;0.50;;
33826;SDS011;20128;45.582;5.298;2022-09-17T10:38:39;2.85;;;0.50;;
33826;SDS011;20128;45.582;5.298;2022-09-17T10:43:40;3.00;;;0.40;;
33826;SDS011;20128;45.582;5.298;2022-09-17T10:46:11;3.40;;;0.65;;
33826;SDS011;20128;45.582;5.298;2022-09-17T10:49:25;0.85;;;0.40;;
33826;SDS011;20128;45.582;5.298;2022-09-17T11:00:43;3.13;;;0.70;;
33826;SDS011;20128;45.582;5.298;2022-09-17T11:13:52;2.47;;;0.52;;
33826;SDS011;20128;45.582;5.298;2022-09-17T11:16:24;3.72;;;0.60;;
33826;SDS011;20128;45.582;5.298;2022-09-17T11:21:37;5.28;;;0.50;;
33826;SDS011;20128;45.582;5.298;2022-09-17T11:29:56;0.95;;;0.38;;
33826;SDS011;20128;45.582;5.298;2022-09-17T11:32:52;3.28;;;0.73;;
33826;SDS011;20128;45.582;5.298;2022-09-17T11:35:31;5.57;;;0.57;;
33826;SDS011;20128;45.582;5.298;2022-09-17T11:38:12;5.32;;;0.50;;
33826;SDS011;20128;45.582;5.298;2022-09-17T11:45:44;12.95;;;0.60;;
33826;SDS011;20128;45.582;5.298;2022-09-17T11:48:36;2.30;;;0.38;;
33826;SDS011;20128;45.582;5.298;2022-09-17T11:53:53;1.70;;;0.25;;
33826;SDS011;20128;45.582;5.298;2022-09-17T11:56:35;1.08;;;0.50;;
33826;SDS011;20128;45.582;5.298;2022-09-17T12:01:54;2.28;;;0.40;;
33826;SDS011;20128;45.582;5.298;2022-09-17T12:04:28;2.15;;;0.40;;
33826;SDS011;20128;45.582;5.298;2022-09-17T12:07:10;1.95;;;0.40;;
33826;SDS011;20128;45.582;5.298;2022-09-17T12:12:59;4.20;;;0.65;;
33826;SDS011;20128;45.582;5.298;2022-09-17T12:15:43;3.25;;;0.80;;
33826;SDS011;20128;45.582;5.298;2022-09-17T12:21:08;4.15;;;0.47;;
33826;SDS011;20128;45.582;5.298;2022-09-17T12:23:42;5.38;;;0.73;;
33826;SDS011;20128;45.582;5.298;2022-09-17T12:29:10;1.88;;;0.40;;
33826;SDS011;20128;45.582;5.298;2022-09-17T12:55:34;2.72;;;0.90;;
33826;SDS011;20128;45.582;5.298;2022-09-17T13:00:30;8.05;;;1.15;;
33826;SDS011;20128;45.582;5.298;2022-09-17T13:03:10;3.13;;;0.73;;
33826;SDS011;20128;45.582;5.298;2022-09-17T13:09:01;3.47;;;0.45;;
33826;SDS011;20128;45.582;5.298;2022-09-17T13:12:15;4.60;;;0.70;;
33826;SDS011;20128;45.582;5.298;2022-09-17T13:19:58;2.50;;;0.65;;
33826;SDS011;20128;45.582;5.298;2022-09-17T13:22:30;4.03;;;0.63;;
33826;SDS011;20128;45.582;5.298;2022-09-17T13:27:29;3.80;;;0.40;;
33826;SDS011;20128;45.582;5.298;2022-09-17T13:29:56;2.78;;;0.65;;
33826;SDS011;20128;45.582;5.298;2022-09-17T13:37:43;1.98;;;0.60;;
33826;SDS011;20128;45.582;5.298;2022-09-17T13:40:20;5.28;;;0.50;;
33826;SDS011;20128;45.582;5.298;2022-09-17T13:42:47;5.65;;;0.65;;
33826;SDS011;20128;45.582;5.298;2022-09-17T13:45:16;1.75;;;0.30;;
33826;SDS011;20128;45.582;5.298;2022-09-17T13:48:02;5.07;;;0.82;;
33826;SDS011;20128;45.582;5.298;2022-09-17T13:50:30;5.25;;;0.50;;
33826;SDS011;20128;45.582;5.298;2022-09-17T13:58:12;4.82;;;0.47;;
33826;SDS011;20128;45.582;5.298;2022-09-17T14:16:44;2.35;;;0.40;;
33826;SDS011;20128;45.582;5.298;2022-09-17T14:21:39;2.63;;;0.50;;
33826;SDS011;20128;45.582;5.298;2022-09-17T14:24:21;2.42;;;0.85;;
33826;SDS011;20128;45.582;5.298;2022-09-17T14:31:57;5.93;;;0.65;;
33826;SDS011;20128;45.582;5.298;2022-09-17T14:34:23;3.13;;;0.80;;
33826;SDS011;20128;45.582;5.298;2022-09-17T14:36:50;3.58;;;0.80;;
33826;SDS011;20128;45.582;5.298;2022-09-17T14:39:22;4.32;;;1.10;;
33826;SDS011;20128;45.582;5.298;2022-09-17T14:41:52;5.35;;;0.63;;
33826;SDS011;20128;45.582;5.298;2022-09-17T14:44:28;7.07;;;0.75;;
33826;SDS011;20128;45.582;5.298;2022-09-17T14:46:59;2.42;;;0.60;;
33826;SDS011;20128;45.582;5.298;2022-09-17T14:49:38;2.53;;;0.50;;
33826;SDS011;20128;45.582;5.298;2022-09-17T14:57:44;3.83;;;0.80;;
33826;SDS011;20128;45.582;5.298;2022-09-17T15:00:16;2.70;;;0.50;;
33826;SDS011;20128;45.582;5.298;2022-09-17T15:02:48;2.35;;;0.60;;
33826;SDS011;20128;45.582;5.298;2022-09-17T15:10:31;1.20;;;0.40;;
33826;SDS011;20128;45.582;5.298;2022-09-17T15:13:00;3.03;;;0.50;;
33826;SDS011;20128;45.582;5.298;2022-09-17T15:15:26;3.05;;;0.60;;
33826;SDS011;20128;45.582;5.298;2022-09-17T15:17:52;1.73;;;0.47;;
33826;SDS011;20128;45.582;5.298;2022-09-17T15:20:20;3.60;;;0.80;;
33826;SDS011;20128;45.582;5.298;2022-09-17T15:23:08;4.00;;;0.45;;
33826;SDS011;20128;45.582;5.298;2022-09-17T15:25:40;5.05;;;0.50;;
33826;SDS011;20128;45.582;5.298;2022-09-17T15:28:12;2.03;;;0.80;;
33826;SDS011;20128;45.582;5.298;2022-09-17T15:30:48;2.60;;;0.52;;
33826;SDS011;20128;45.582;5.298;2022-09-17T15:33:15;2.17;;;0.50;;
33826;SDS011;20128;45.582;5.298;2022-09-17T15:35:56;2.33;;;0.60;;
33826;SDS011;20128;45.582;5.298;2022-09-17T15:38:27;2.25;;;0.63;;
33826;SDS011;20128;45.582;5.298;2022-09-17T15:40:54;3.03;;;0.50;;
33826;SDS011;20128;45.582;5.298;2022-09-17T15:43:34;3.63;;;0.75;;
33826;SDS011;20128;45.582;5.298;2022-09-17T15:46:22;5.97;;;0.60;;
33826;SDS011;20128;45.582;5.298;2022-09-17T15:48:51;2.25;;;0.40;;
33826;SDS011;20128;45.582;5.298;2022-09-17T15:51:22;2.92;;;0.45;;
33826;SDS011;20128;45.582;5.298;2022-09-17T15:53:55;3.55;;;0.35;;
33826;SDS011;20128;45.582;5.298;2022-09-17T15:56:22;2.47;;;0.50;;
33826;SDS011;20128;45.582;5.298;2022-09-17T15:59:38;1.20;;;0.40;;
33826;SDS011;20128;45.582;5.298;2022-09-17T16:02:08;2.28;;;0.57;;
33826;SDS011;20128;45.582;5.298;2022-09-17T16:04:49;2.35;;;0.32;;
33826;SDS011;20128;45.582;5.298;2022-09-17T16:07:45;3.53;;;1.10;;
33826;SDS011;20128;45.582;5.298;2022-09-17T16:10:11;5.50;;;0.40;;
33826;SDS011;20128;45.582;5.298;2022-09-17T16:12:38;2.97;;;0.60;;
33826;SDS011;20128;45.582;5.298;2022-09-17T16:15:04;3.97;;;0.60;;
33826;SDS011;20128;45.582;5.298;2022-09-17T16:17:43;3.40;;;0.60;;
33826;SDS011;20128;45.582;5.298;2022-09-17T16:22:50;1.00;;;0.32;;
33826;SDS011;20128;45.582;5.298;2022-09-17T16:25:17;5.75;;;0.65;;
33826;SDS011;20128;45.582;5.298;2022-09-17T16:27:50;3.47;;;0.60;;
33826;SDS011;20128;45.582;5.298;2022-09-17T16:30:19;3.05;;;0.98;;
33826;SDS011;20128;45.582;5.298;2022-09-17T16:32:46;2.58;;;0.45;;
33826;SDS011;20128;45.582;5.298;2022-09-17T16:35:19;4.03;;;0.70;;
33826;SDS011;20128;45.582;5.298;2022-09-17T16:37:47;3.45;;;0.80;;
33826;SDS011;20128;45.582;5.298;2022-09-17T16:40:17;4.40;;;0.40;;
33826;SDS011;20128;45.582;5.298;2022-09-17T16:42:43;3.85;;;0.60;;
33826;SDS011;20128;45.582;5.298;2022-09-17T16:45:09;4.45;;;0.55;;
33826;SDS011;20128;45.582;5.298;2022-09-17T16:47:36;3.13;;;0.50;;
33826;SDS011;20128;45.582;5.298;2022-09-17T16:50:06;5.22;;;0.57;;
33826;SDS011;20128;45.582;5.298;2022-09-17T16:52:36;1.75;;;0.60;;
33826;SDS011;20128;45.582;5.298;2022-09-17T16:55:02;5.45;;;1.45;;
33826;SDS011;20128;45.582;5.298;2022-09-17T16:57:29;3.78;;;0.73;;
33826;SDS011;20128;45.582;5.298;2022-09-17T16:59:56;1.90;;;0.40;;
33826;SDS011;20128;45.582;5.298;2022-09-17T17:02:22;2.97;;;0.73;;
33826;SDS011;20128;45.582;5.298;2022-09-17T17:04:48;4.88;;;0.80;;
33826;SDS011;20128;45.582;5.298;2022-09-17T17:07:13;3.40;;;0.85;;
33826;SDS011;20128;45.582;5.298;2022-09-17T17:09:39;2.15;;;0.38;;
33826;SDS011;20128;45.582;5.298;2022-09-17T17:12:05;3.83;;;1.08;;
33826;SDS011;20128;45.582;5.298;2022-09-17T17:14:30;4.53;;;0.70;;
33826;SDS011;20128;45.582;5.298;2022-09-17T17:16:56;3.75;;;0.90;;
33826;SDS011;20128;45.582;5.298;2022-09-17T17:19:22;2.47;;;0.50;;
33826;SDS011;20128;45.582;5.298;2022-09-17T17:21:49;2.33;;;0.45;;
33826;SDS011;20128;45.582;5.298;2022-09-17T17:24:15;3.78;;;0.95;;
33826;SDS011;20128;45.582;5.298;2022-09-17T17:26:41;2.38;;;0.50;;
33826;SDS011;20128;45.582;5.298;2022-09-17T17:29:07;3.72;;;0.63;;
33826;SDS011;20128;45.582;5.298;2022-09-17T17:31:33;1.60;;;0.50;;
33826;SDS011;20128;45.582;5.298;2022-09-17T17:33:59;2.45;;;1.08;;
33826;SDS011;20128;45.582;5.298;2022-09-17T17:36:25;2.33;;;0.88;;
33826;SDS011;20128;45.582;5.298;2022-09-17T17:38:55;5.68;;;1.70;;
33826;SDS011;20128;45.582;5.298;2022-09-17T17:41:21;3.28;;;1.08;;
33826;SDS011;20128;45.582;5.298;2022-09-17T17:43:51;5.00;;;0.68;;
33826;SDS011;20128;45.582;5.298;2022-09-17T17:46:17;5.05;;;0.70;;
33826;SDS011;20128;45.582;5.298;2022-09-17T17:48:43;4.28;;;0.70;;
33826;SDS011;20128;45.582;5.298;2022-09-17T17:51:09;2.10;;;0.70;;
33826;SDS011;20128;45.582;5.298;2022-09-17T17:53:34;4.00;;;0.65;;
33826;SDS011;20128;45.582;5.298;2022-09-17T17:56:02;1.98;;;0.80;;
33826;SDS011;20128;45.582;5.298;2022-09-17T17:58:30;6.47;;;1.00;;
33826;SDS011;20128;45.582;5.298;2022-09-17T18:00:56;3.13;;;0.90;;
33826;SDS011;20128;45.582;5.298;2022-09-17T18:03:22;3.20;;;0.90;;
33826;SDS011;20128;45.582;5.298;2022-09-17T18:05:54;3.90;;;0.77;;
33826;SDS011;20128;45.582;5.298;2022-09-17T18:08:21;2.85;;;1.08;;
33826;SDS011;20128;45.582;5.298;2022-09-17T18:10:51;3.22;;;1.05;;
33826;SDS011;20128;45.582;5.298;2022-09-17T18:13:17;4.20;;;0.95;;
33826;SDS011;20128;45.582;5.298;2022-09-17T18:15:53;2.90;;;0.70;;
33826;SDS011;20128;45.582;5.298;2022-09-17T18:18:21;5.85;;;0.70;;
33826;SDS011;20128;45.582;5.298;2022-09-17T18:20:47;1.70;;;0.60;;
33826;SDS011;20128;45.582;5.298;2022-09-17T18:23:15;5.75;;;0.90;;
33826;SDS011;20128;45.582;5.298;2022-09-17T18:25:41;2.42;;;0.70;;
33826;SDS011;20128;45.582;5.298;2022-09-17T18:28:15;3.30;;;0.70;;
33826;SDS011;20128;45.582;5.298;2022-09-17T18:30:41;3.63;;;0.60;;
33826;SDS011;20128;45.582;5.298;2022-09-17T18:33:07;4.95;;;1.08;;
33826;SDS011;20128;45.582;5.298;2022-09-17T18:35:34;3.08;;;0.60;;
33826;SDS011;20128;45.582;5.298;2022-09-17T18:38:02;4.85;;;0.90;;
33826;SDS011;20128;45.582;5.298;2022-09-17T18:40:30;4.43;;;0.85;;
33826;SDS011;20128;45.582;5.298;2022-09-17T18:42:56;2.53;;;0.70;;
33826;SDS011;20128;45.582;5.298;2022-09-17T18:45:22;3.20;;;0.55;;